createdAt,value
2023-03-06T05:02:26.321Z,0.373
2023-03-06T05:08:18.358Z,0.747
2023-03-06T05:11:42.457Z,1.494
2023-03-06T05:14:51.230Z,2.614
2023-03-06T05:17:34.525Z,3.735
2023-03-06T05:20:38.246Z,6.723
2023-03-06T05:23:31.782Z,11.578
2023-03-06T05:26:04.803Z,17.928
2023-03-06T05:28:37.864Z,28.012
2023-03-06T05:33:43.947Z,61.627
2023-03-06T05:36:16.957Z,87.399
2023-03-06T05:38:50.036Z,121.761
2023-03-06T05:42:44.686Z,200.196
2023-03-06T05:45:17.821Z,270.414
2023-03-06T05:47:55.993Z,354.078
2023-03-06T05:50:34.145Z,448.2
2023-03-06T05:54:49.218Z,630.468
2023-03-06T05:58:03.131Z,776.88
2023-03-06T06:00:51.506Z,896.4
2023-03-06T06:03:39.887Z,1027.872
2023-03-06T06:06:13.068Z,1141.416
2023-03-06T06:09:01.382Z,1290.816
2023-03-06T06:11:44.809Z,1446.192
2023-03-06T06:14:33.145Z,1613.52
2023-03-06T06:17:21.492Z,1828.656
2023-03-06T06:19:54.731Z,2043.792
2023-03-06T06:22:58.247Z,2294.784
2023-03-06T06:25:31.279Z,2486.016
2023-03-06T06:28:24.758Z,2701.152
2023-03-06T06:32:14.409Z,2964.096
2023-03-06T06:34:52.518Z,3083.616
2023-03-06T06:37:35.797Z,3083.616
2023-03-06T06:40:19.084Z,2832.624
2023-03-06T06:42:52.126Z,2569.68
2023-03-06T06:45:40.500Z,2282.832
2023-03-06T06:48:33.954Z,2103.552
2023-03-06T06:51:22.392Z,2091.6
2023-03-06T06:54:41.427Z,2151.36
2023-03-06T06:58:05.598Z,2306.736
2023-03-06T07:00:48.851Z,2438.208
2023-03-06T07:04:02.836Z,2713.104
2023-03-06T07:06:35.860Z,2904.336
2023-03-06T07:09:19.250Z,3346.56
2023-03-06T07:12:27.877Z,3872.448
2023-03-06T07:15:41.702Z,4015.872
2023-03-06T07:18:55.592Z,4254.912
2023-03-06T07:21:43.971Z,4111.488
2023-03-06T07:24:37.433Z,3776.832
2023-03-06T07:27:25.796Z,3681.216
2023-03-06T07:29:58.837Z,3944.16
2023-03-06T07:32:31.914Z,4398.336
2023-03-06T07:35:25.446Z,5163.264
2023-03-06T07:38:29.191Z,6597.504
2023-03-06T07:41:22.813Z,7840.512
2023-03-06T07:43:55.716Z,8892.288
2023-03-06T07:46:54.370Z,8987.904
2023-03-06T07:49:27.439Z,8940.096
2023-03-06T07:52:05.627Z,9370.368
2023-03-06T07:54:48.862Z,10278.72
2023-03-06T07:57:32.215Z,10756.8
2023-03-06T08:00:15.529Z,11139.264
2023-03-06T08:03:24.306Z,11808.576
2023-03-06T08:06:07.680Z,11282.688
2023-03-06T08:09:01.176Z,10900.224
2023-03-06T08:11:49.585Z,10326.528
2023-03-06T08:15:29.113Z,10374.336
2023-03-06T08:18:32.706Z,10278.72
2023-03-06T08:21:41.553Z,10517.76
2023-03-06T08:24:35.106Z,11282.688
2023-03-06T08:27:28.597Z,11808.576
2023-03-06T08:30:32.287Z,12716.928
2023-03-06T08:33:10.433Z,14438.016
2023-03-06T08:35:43.640Z,16445.952
2023-03-06T08:38:21.713Z,17210.88
2023-03-06T08:40:59.904Z,16637.184
2023-03-06T08:43:43.200Z,19218.816
2023-03-06T08:46:16.289Z,21131.136
2023-03-06T08:48:59.493Z,20461.824
2023-03-06T08:51:37.682Z,18645.12
2023-03-06T08:54:41.382Z,17306.496
2023-03-06T08:57:39.973Z,15681.024
2023-03-06T09:00:18.226Z,15585.408
2023-03-06T09:04:17.961Z,17306.496
2023-03-06T09:07:16.636Z,17115.264
2023-03-06T09:09:49.811Z,17402.112
2023-03-06T09:12:29.248Z,17497.728
2023-03-06T09:15:16.268Z,15681.024
2023-03-06T09:17:49.473Z,15585.408
2023-03-06T09:21:23.730Z,17497.728
2023-03-06T09:23:56.838Z,19314.432
2023-03-06T09:26:45.820Z,19505.664
2023-03-06T09:29:18.399Z,23139.072
2023-03-06T09:32:01.721Z,25242.624
2023-03-06T09:34:34.779Z,25433.856
2023-03-06T09:37:13.014Z,23330.304
2023-03-06T09:39:56.298Z,23521.536
2023-03-06T09:43:05.117Z,24668.928
2023-03-06T09:45:43.402Z,24286.464
2023-03-06T09:48:26.665Z,21896.064
2023-03-06T09:50:59.816Z,21226.752
2023-03-06T09:53:43.027Z,21896.064
2023-03-06T09:56:16.171Z,19218.816
2023-03-06T09:58:54.459Z,21226.752
2023-03-06T10:01:47.907Z,20748.672
2023-03-06T10:04:41.470Z,22756.608
2023-03-06T10:07:19.682Z,21896.064
2023-03-06T10:09:52.729Z,21800.448
2023-03-06T10:12:36.089Z,21609.216
2023-03-06T10:15:22.837Z,17019.648
2023-03-06T10:18:06.112Z,12525.696
2023-03-06T10:20:49.418Z,10852.416
2023-03-06T10:23:32.713Z,14151.168
2023-03-06T10:26:10.989Z,15394.176
2023-03-06T10:28:44.025Z,15202.944
2023-03-06T10:31:42.299Z,20461.824
2023-03-06T10:34:15.338Z,21609.216
2023-03-06T10:36:51.478Z,14916.096
2023-03-06T10:39:34.723Z,14246.784
2023-03-06T10:42:12.924Z,15872.256
2023-03-06T10:44:51.148Z,17402.112
2023-03-06T10:47:29.410Z,17688.96
2023-03-06T10:50:22.792Z,13673.088
2023-03-06T10:53:06.090Z,14342.4
2023-03-06T10:55:44.269Z,17688.96
2023-03-06T10:58:22.442Z,17784.576
2023-03-06T11:00:55.534Z,17975.808
2023-03-06T11:03:54.148Z,18071.424
2023-03-06T11:06:32.311Z,19983.744
2023-03-06T11:09:18.660Z,19027.584
2023-03-06T11:11:52.353Z,16541.568
2023-03-06T11:14:40.896Z,16924.032
2023-03-06T11:17:13.893Z,19888.128
2023-03-06T11:19:55.303Z,24860.16
2023-03-06T11:22:28.350Z,26390.016
2023-03-06T11:25:06.576Z,24190.848
2023-03-06T11:28:00.178Z,18931.968
2023-03-06T11:30:39.672Z,12716.928
2023-03-06T11:33:28.125Z,10087.488
2023-03-06T11:36:10.332Z,10039.68
2023-03-06T11:38:43.395Z,8844.48
2023-03-06T11:41:47.118Z,6262.848
2023-03-06T11:44:25.264Z,7697.088
2023-03-06T11:46:59.160Z,11952
2023-03-06T11:49:34.852Z,19601.28
2023-03-06T11:52:18.117Z,20748.672
2023-03-06T11:54:58.113Z,28111.104
2023-03-06T11:57:36.349Z,24095.232
2023-03-06T12:00:24.762Z,23712.768
2023-03-06T12:03:18.259Z,19696.896
2023-03-06T12:05:48.333Z,24860.16
2023-03-06T12:08:21.378Z,23904
2023-03-06T12:11:04.647Z,22278.528
2023-03-06T12:13:37.798Z,15394.176
2023-03-06T12:16:16.046Z,13673.088
2023-03-06T12:18:49.065Z,14438.016
2023-03-06T12:21:22.165Z,10613.376
2023-03-06T12:23:55.321Z,10613.376
2023-03-06T12:27:29.650Z,12525.696
2023-03-06T12:30:12.920Z,10374.336
2023-03-06T12:32:56.200Z,6262.848
2023-03-06T12:35:39.590Z,11330.496
2023-03-06T12:38:11.510Z,25816.32
2023-03-06T12:40:44.605Z,24190.848
2023-03-06T12:43:22.759Z,21322.368
2023-03-06T12:46:00.995Z,26198.784
2023-03-06T12:48:46.008Z,25625.088
2023-03-06T12:51:19.072Z,20557.44
2023-03-06T12:53:52.958Z,19601.28
2023-03-06T12:56:26.156Z,22374.144
2023-03-06T12:59:14.561Z,19027.584
2023-03-06T13:02:13.197Z,22374.144
2023-03-06T13:04:51.346Z,19888.128
2023-03-06T13:07:38.316Z,17880.192
2023-03-06T13:10:26.716Z,15011.712
2023-03-06T13:13:15.085Z,19601.28
2023-03-06T13:15:53.329Z,18549.504
2023-03-06T13:19:03.343Z,22660.992
2023-03-06T13:22:25.728Z,19983.744
2023-03-06T13:25:03.597Z,16637.184
2023-03-06T13:27:42.171Z,13673.088
2023-03-06T13:30:25.548Z,12191.04
2023-03-06T13:33:18.925Z,10565.568
2023-03-06T13:36:02.261Z,6932.16
2023-03-06T13:38:40.462Z,4852.512
2023-03-06T13:41:28.865Z,3729.024
2023-03-06T13:44:22.269Z,3322.656
2023-03-06T13:46:57.867Z,2737.008
2023-03-06T13:49:30.980Z,2533.824
2023-03-06T13:52:04.031Z,1589.616
2023-03-06T13:54:42.263Z,1661.328
2023-03-06T13:57:40.862Z,1768.896
2023-03-06T14:00:19.088Z,1434.24
2023-03-06T14:02:52.175Z,1541.808
2023-03-06T14:05:25.205Z,1685.232
2023-03-06T14:08:03.436Z,1565.712
2023-03-06T14:10:36.550Z,1816.704
2023-03-06T14:13:19.821Z,2796.768
2023-03-06T14:16:50.515Z,3944.16
2023-03-06T14:19:42.445Z,4780.8
2023-03-06T14:22:30.815Z,4541.76
2023-03-06T14:25:24.305Z,3968.064
2023-03-06T14:28:17.782Z,3083.616
2023-03-06T14:31:47.006Z,2653.344
2023-03-06T14:34:35.360Z,6406.272
2023-03-06T14:37:23.763Z,6406.272
2023-03-06T14:39:56.811Z,4948.128
2023-03-06T14:42:29.921Z,4254.912
2023-03-06T14:45:13.160Z,4948.128
2023-03-06T14:48:47.394Z,5497.92
2023-03-06T14:52:31.856Z,5187.168
2023-03-06T14:55:20.252Z,5856.48
2023-03-06T14:57:53.350Z,6597.504
2023-03-06T15:00:26.462Z,7266.816
2023-03-06T15:03:25.113Z,7553.664
2023-03-06T15:07:24.931Z,7410.24
2023-03-06T15:10:03.094Z,7266.816
2023-03-06T15:12:51.465Z,7171.2
2023-03-06T15:15:21.655Z,7027.776
2023-03-06T15:18:25.334Z,6454.08
2023-03-06T15:25:32.440Z,4613.472
2023-03-06T15:32:18.925Z,4183.2
2023-03-06T15:36:23.871Z,3418.272
2023-03-06T15:38:55.461Z,2235.024
2023-03-06T15:41:28.583Z,1613.52
2023-03-06T15:44:42.424Z,824.688
2023-03-06T15:47:17.444Z,591.624
2023-03-06T15:49:50.430Z,1565.712
2023-03-06T15:52:23.658Z,2450.16
2023-03-06T15:54:56.728Z,2462.112
2023-03-06T15:57:29.935Z,2330.64
2023-03-06T16:00:43.780Z,1960.128
2023-03-06T16:03:47.500Z,1320.696
2023-03-06T16:06:46.076Z,1123.488
2023-03-06T16:09:19.266Z,980.064
2023-03-06T16:11:52.396Z,567.72
2023-03-06T16:15:01.077Z,382.464
2023-03-06T16:17:59.667Z,312.246
2023-03-06T16:20:47.914Z,325.692
2023-03-06T16:25:48.556Z,490.032
2023-03-06T16:28:51.575Z,493.02
2023-03-06T16:33:56.169Z,663.336
2023-03-06T16:41:29.144Z,454.176
2023-03-06T16:46:29.396Z,300.294
2023-03-06T16:51:29.412Z,198.702
2023-03-06T16:56:29.644Z,97.857
2023-03-06T17:01:29.582Z,66.483
2023-03-06T17:06:29.699Z,38.844
2023-03-06T17:10:13.897Z,20.916
2023-03-06T17:15:12.988Z,11.205
2023-03-06T17:20:13.058Z,4.108
2023-03-06T17:25:13.150Z,1.494
2023-03-06T17:27:56.888Z,0.747
2023-03-06T17:37:23.246Z,0
2023-03-06T18:41:55.692Z,0.373
2023-03-06T18:48:48.907Z,0
2023-03-06T18:52:18.046Z,0.373
2023-03-06T18:55:01.329Z,0
2023-03-06T18:58:25.340Z,0.373
